Time;durP1;ratioP1;P1;durP2;ratioP2;P2;SDS_P1;SDS_P2;PMS_P1;PMS_P2;Temp;Humidity;BMP_temperature;BMP_pressure;BME280_temperature;BME280_humidity;BME280_pressure;Samples;Min_cycle;Max_cycle;Signal;HPM_P1;HPM_P2
2023/02/01 00:00:45;;;;;;;0.63;0.50;;;15.60;63.90;;;;;;5059943;28;20053;-10
2023/02/01 00:03:12;;;;;;;0.52;0.50;;;15.50;64.00;;;;;;5046511;28;20056;-17
2023/02/01 00:05:38;;;;;;;1.10;0.52;;;15.50;64.20;;;;;;5042466;28;20053;-11
2023/02/01 00:08:04;;;;;;;0.60;0.60;;;15.50;64.20;;;;;;5063237;28;20056;-10
2023/02/01 00:10:29;;;;;;;0.77;0.50;;;15.40;64.30;;;;;;5061927;28;20043;-11
2023/02/01 00:12:55;;;;;;;0.63;0.55;;;15.40;64.40;;;;;;5048686;28;20125;-11
2023/02/01 00:15:20;;;;;;;0.98;0.60;;;15.40;64.30;;;;;;5059494;28;20233;-12
2023/02/01 00:17:46;;;;;;;3.42;0.60;;;15.40;64.60;;;;;;5045739;28;20075;-10
2023/02/01 00:20:11;;;;;;;0.40;0.40;;;15.40;64.60;;;;;;5046425;28;20149;-10
2023/02/01 00:22:37;;;;;;;0.50;0.50;;;15.40;64.50;;;;;;5044872;28;20047;-11
2023/02/01 00:25:03;;;;;;;1.27;0.50;;;15.40;64.60;;;;;;5056416;28;20044;-10
2023/02/01 00:27:29;;;;;;;0.50;0.40;;;15.30;64.80;;;;;;5049572;28;20045;-10
2023/02/01 00:29:55;;;;;;;0.57;0.50;;;15.40;64.30;;;;;;5057297;28;20051;-10
2023/02/01 00:32:21;;;;;;;0.60;0.55;;;15.30;64.80;;;;;;5052198;28;20108;-10
2023/02/01 00:34:46;;;;;;;0.98;0.40;;;15.30;65.50;;;;;;5043239;28;20127;-10
2023/02/01 00:37:12;;;;;;;0.60;0.43;;;15.40;64.60;;;;;;5047905;28;20067;-12
2023/02/01 00:39:37;;;;;;;0.75;0.60;;;15.40;64.50;;;;;;5056534;28;20049;-11
2023/02/01 00:42:03;;;;;;;0.52;0.52;;;15.40;64.40;;;;;;5053159;28;20063;-14
2023/02/01 00:44:32;;;;;;;0.63;0.63;;;15.40;64.60;;;;;;5048631;28;20052;-10
2023/02/01 00:46:58;;;;;;;0.60;0.40;;;15.70;63.90;;;;;;5045780;28;20519;-10
2023/02/01 00:49:24;;;;;;;0.40;0.40;;;15.70;63.70;;;;;;5066078;28;20040;-10
2023/02/01 00:51:49;;;;;;;0.52;0.50;;;15.60;64.00;;;;;;5058968;28;20578;-10
2023/02/01 00:54:15;;;;;;;0.82;0.60;;;15.50;64.00;;;;;;5057835;28;20036;-10
2023/02/01 00:56:40;;;;;;;0.45;0.45;;;15.70;63.70;;;;;;5047689;28;20554;-12
2023/02/01 00:59:07;;;;;;;2.03;0.50;;;15.80;63.30;;;;;;5043870;28;20044;-10
2023/02/01 01:01:33;;;;;;;1.15;0.60;;;15.70;63.40;;;;;;5040327;28;20084;-10
2023/02/01 01:03:59;;;;;;;0.68;0.60;;;15.40;64.20;;;;;;5049882;28;20527;-10
2023/02/01 01:06:31;;;;;;;0.75;0.40;;;15.30;64.80;;;;;;5044564;28;20052;-11
2023/02/01 01:08:58;;;;;;;0.40;0.40;;;15.20;65.90;;;;;;5054697;28;20121;-10
2023/02/01 01:11:25;;;;;;;0.77;0.70;;;15.30;64.80;;;;;;5058948;28;20052;-10
2023/02/01 01:13:52;;;;;;;0.60;0.40;;;15.20;65.10;;;;;;5050226;28;20052;-10
2023/02/01 01:16:17;;;;;;;0.57;0.40;;;15.20;65.30;;;;;;5048764;28;20045;-10
2023/02/01 01:18:43;;;;;;;1.63;0.93;;;15.10;65.30;;;;;;5048207;28;20047;-10
2023/02/01 01:21:09;;;;;;;0.40;0.32;;;15.20;65.30;;;;;;5046137;28;20059;-11
2023/02/01 01:23:35;;;;;;;1.20;0.63;;;15.20;65.00;;;;;;5056564;28;20036;-10
2023/02/01 01:26:04;;;;;;;0.50;0.45;;;15.20;64.80;;;;;;5065138;28;20053;-11
2023/02/01 01:28:29;;;;;;;0.40;0.40;;;15.20;65.10;;;;;;5069756;28;20098;-10
2023/02/01 01:30:55;;;;;;;0.68;0.50;;;15.30;64.80;;;;;;5064767;28;20507;-10
2023/02/01 01:33:20;;;;;;;0.50;0.50;;;15.40;64.60;;;;;;5053030;28;20060;-10
2023/02/01 01:35:46;;;;;;;0.90;0.63;;;15.30;64.70;;;;;;5043518;28;20060;-11
2023/02/01 01:38:11;;;;;;;0.52;0.35;;;15.30;64.80;;;;;;5049981;28;20052;-10
2023/02/01 01:40:37;;;;;;;0.88;0.40;;;15.30;65.50;;;;;;5051531;28;20470;-10
2023/02/01 01:43:03;;;;;;;0.85;0.68;;;15.30;64.70;;;;;;5048051;28;20048;-10
2023/02/01 01:45:33;;;;;;;0.47;0.40;;;15.40;64.60;;;;;;5069036;28;20052;-10
2023/02/01 01:48:07;;;;;;;0.95;0.47;;;15.40;64.50;;;;;;5065523;28;20725;-10
2023/02/01 01:50:56;;;;;;;;;;;15.30;64.60;;;;;;5066175;28;20498;-21
2023/02/01 01:53:27;;;;;;;0.60;0.47;;;15.40;64.50;;;;;;5044087;28;19916;-12
2023/02/01 01:55:53;;;;;;;0.80;0.65;;;15.40;64.30;;;;;;5046534;28;20037;-17
2023/02/01 01:58:20;;;;;;;0.82;0.43;;;15.40;64.40;;;;;;5047139;28;20040;-14
2023/02/01 02:00:45;;;;;;;0.60;0.50;;;15.40;64.40;;;;;;5041363;28;20048;-12
2023/02/01 02:03:28;;;;;;;0.75;0.60;;;15.30;64.50;;;;;;5047668;28;20098;-12
2023/02/01 02:05:54;;;;;;;0.60;0.60;;;15.30;64.80;;;;;;5051518;28;20053;-13
2023/02/01 02:08:20;;;;;;;0.40;0.40;;;15.20;65.10;;;;;;5053824;28;20158;-12
2023/02/01 02:11:01;;;;;;;1.35;0.40;;;15.20;65.10;;;;;;5047862;28;20102;-12
2023/02/01 02:13:40;;;;;;;1.08;0.70;;;15.40;64.60;;;;;;5047439;28;20049;-15
2023/02/01 02:16:11;;;;;;;0.73;0.50;;;15.40;64.60;;;;;;5055849;28;20045;-12
2023/02/01 02:18:45;;;;;;;0.80;0.38;;;15.40;64.20;;;;;;5059350;28;20048;-13
2023/02/01 02:21:17;;;;;;;0.82;0.50;;;15.40;64.20;;;;;;5053226;28;20048;-12
2023/02/01 02:24:27;;;;;;;0.70;0.50;;;15.30;64.30;;;;;;5054509;28;20124;-13
2023/02/01 02:27:30;;;;;;;1.00;0.47;;;15.40;64.20;;;;;;5059418;28;20073;-12
2023/02/01 02:30:23;;;;;;;0.47;0.40;;;15.30;64.50;;;;;;5060014;28;20091;-13
2023/02/01 02:33:21;;;;;;;0.52;0.52;;;15.40;64.60;;;;;;5046205;28;20049;-23
2023/02/01 02:36:06;;;;;;;1.35;0.63;;;15.40;64.20;;;;;;5048644;28;20049;-14
2023/02/01 02:38:35;;;;;;;0.80;0.68;;;15.30;64.60;;;;;;5046616;28;20056;-13
2023/02/01 02:41:09;;;;;;;0.50;0.50;;;15.20;65.10;;;;;;5053216;28;20041;-22
2023/02/01 02:49:20;;;;;;;0.75;0.70;;;15.10;65.30;;;;;;5027753;28;20098;-14
2023/02/01 02:54:50;;;;;;;0.50;0.50;;;15.40;64.20;;;;;;5049387;28;20051;-12
2023/02/01 03:05:43;;;;;;;1.58;0.50;;;15.40;64.20;;;;;;5048297;28;20411;-12
2023/02/01 03:08:25;;;;;;;0.47;0.38;;;15.40;64.20;;;;;;5059695;28;20458;-12
2023/02/01 03:11:10;;;;;;;0.73;0.40;;;15.30;64.50;;;;;;5057640;28;20052;-22
2023/02/01 03:13:54;;;;;;;0.82;0.50;;;15.30;64.40;;;;;;5067840;28;20040;-19
2023/02/01 03:16:28;;;;;;;0.85;0.50;;;15.40;64.00;;;;;;5035674;28;20429;-20
2023/02/01 03:19:15;;;;;;;0.50;0.43;;;15.30;64.20;;;;;;5048612;28;20041;-12
2023/02/01 03:21:48;;;;;;;0.73;0.60;;;15.50;63.90;;;;;;5052850;28;20098;-13
2023/02/01 03:24:44;;;;;;;0.50;0.50;;;15.50;63.60;;;;;;5057268;28;20040;-12
2023/02/01 03:27:28;;;;;;;0.47;0.40;;;15.50;63.90;;;;;;5048185;28;20519;-12
2023/02/01 03:30:25;;;;;;;0.60;0.47;;;15.50;64.00;;;;;;5063496;28;20051;-13
2023/02/01 03:32:59;;;;;;;0.52;0.45;;;15.60;63.80;;;;;;5057958;28;20430;-20
2023/02/01 03:35:30;;;;;;;;;;;15.60;63.60;;;;;;5049730;28;20045;-11
2023/02/01 03:38:00;;;;;;;0.65;0.40;;;15.40;64.00;;;;;;5059338;28;20299;-14
2023/02/01 03:40:26;;;;;;;0.68;0.40;;;15.30;64.80;;;;;;5065572;28;20048;-14
2023/02/01 03:42:54;;;;;;;1.25;0.52;;;15.20;64.60;;;;;;5062344;28;20040;-12
2023/02/01 03:45:26;;;;;;;0.70;0.30;;;15.20;64.90;;;;;;5051330;28;20061;-12
2023/02/01 03:47:53;;;;;;;0.45;0.38;;;15.10;65.10;;;;;;5043673;28;20041;-12
2023/02/01 03:50:20;;;;;;;0.80;0.60;;;15.20;65.00;;;;;;5053198;28;20037;-13
2023/02/01 03:53:14;;;;;;;1.00;0.50;;;15.20;65.00;;;;;;5060951;28;20041;-12
2023/02/01 03:55:40;;;;;;;0.35;0.35;;;15.10;65.00;;;;;;5057696;28;20052;-16
2023/02/01 03:58:19;;;;;;;1.13;0.50;;;15.10;65.20;;;;;;5045852;28;20045;-12
2023/02/01 04:00:57;;;;;;;0.50;0.30;;;15.10;65.30;;;;;;5044642;28;20044;-12
2023/02/01 04:03:24;;;;;;;0.40;0.40;;;15.10;65.30;;;;;;5042122;28;20052;-12
2023/02/01 04:05:50;;;;;;;0.70;0.30;;;15.00;65.30;;;;;;5057754;28;20060;-12
2023/02/01 04:08:16;;;;;;;0.70;0.50;;;15.00;65.40;;;;;;5066516;28;20064;-12
2023/02/01 04:10:42;;;;;;;0.73;0.40;;;15.00;65.20;;;;;;5056741;28;20044;-13
2023/02/01 04:13:08;;;;;;;0.50;0.30;;;15.00;65.40;;;;;;5062816;28;20032;-13
2023/02/01 04:15:34;;;;;;;0.30;0.30;;;15.00;65.40;;;;;;5042944;28;20052;-12
2023/02/01 04:18:00;;;;;;;0.63;0.45;;;15.00;65.50;;;;;;5056958;28;20037;-26
2023/02/01 04:20:25;;;;;;;0.40;0.40;;;15.00;65.30;;;;;;5051987;28;20094;-15
2023/02/01 04:22:51;;;;;;;0.93;0.60;;;15.00;65.40;;;;;;5046165;28;20033;-17
2023/02/01 04:25:17;;;;;;;0.43;0.40;;;15.00;65.30;;;;;;5044570;28;20044;-19
2023/02/01 04:27:43;;;;;;;0.55;0.45;;;15.00;65.40;;;;;;5044247;28;20450;-12
2023/02/01 04:30:09;;;;;;;0.50;0.43;;;15.00;65.20;;;;;;5048730;28;20056;-15
2023/02/01 04:32:38;;;;;;;0.80;0.75;;;15.10;65.30;;;;;;5056340;28;20067;-13
2023/02/01 04:35:04;;;;;;;0.90;0.50;;;15.10;65.10;;;;;;5050585;28;20041;-12
2023/02/01 04:37:30;;;;;;;0.35;0.30;;;15.00;65.30;;;;;;5043264;28;20037;-12
2023/02/01 04:39:55;;;;;;;1.27;0.40;;;15.10;65.10;;;;;;5044632;28;20598;-12
2023/02/01 04:42:21;;;;;;;0.70;0.45;;;15.20;65.10;;;;;;5045544;28;20048;-14
2023/02/01 04:44:46;;;;;;;1.52;0.47;;;15.20;64.80;;;;;;5056229;28;20157;-16
2023/02/01 04:47:12;;;;;;;0.88;0.52;;;15.30;65.50;;;;;;5067935;28;21133;-12
2023/02/01 04:49:38;;;;;;;0.52;0.40;;;15.30;64.50;;;;;;5061320;28;20048;-13
2023/02/01 04:52:03;;;;;;;1.05;0.50;;;15.30;64.50;;;;;;5048207;28;20543;-12
2023/02/01 04:54:29;;;;;;;0.68;0.40;;;15.30;64.40;;;;;;5053166;28;20047;-12
2023/02/01 04:56:54;;;;;;;0.98;0.50;;;15.40;64.20;;;;;;5055848;28;20055;-12
2023/02/01 04:59:20;;;;;;;0.50;0.50;;;15.40;64.10;;;;;;5062214;28;20115;-15
2023/02/01 05:01:46;;;;;;;0.73;0.40;;;15.30;64.20;;;;;;5057621;28;20070;-16
2023/02/01 05:04:11;;;;;;;0.52;0.30;;;15.40;64.10;;;;;;5049438;28;20528;-12
2023/02/01 05:06:37;;;;;;;0.50;0.50;;;15.40;64.10;;;;;;5048663;28;20127;-12
2023/02/01 05:09:02;;;;;;;0.52;0.47;;;15.40;63.90;;;;;;5048470;28;20033;-12
2023/02/01 05:14:12;;;;;;;0.85;0.60;;;15.10;64.70;;;;;;5067648;28;20173;-12
2023/02/01 05:16:38;;;;;;;0.55;0.30;;;15.20;64.80;;;;;;5062607;28;20056;-12
2023/02/01 05:19:03;;;;;;;0.52;0.40;;;15.20;64.70;;;;;;5055976;28;20041;-12
2023/02/01 05:21:29;;;;;;;0.63;0.40;;;15.20;64.70;;;;;;5059688;28;20049;-15
2023/02/01 05:24:10;;;;;;;0.70;0.55;;;15.20;64.80;;;;;;5056640;28;20058;-12
2023/02/01 05:26:36;;;;;;;0.90;0.50;;;15.10;65.00;;;;;;5053173;28;20116;-13
2023/02/01 05:29:02;;;;;;;0.60;0.40;;;15.10;65.00;;;;;;5062189;28;20503;-13
2023/02/01 05:31:28;;;;;;;0.52;0.38;;;15.20;64.90;;;;;;5051462;28;20056;-12
2023/02/01 05:33:53;;;;;;;0.85;0.55;;;15.20;64.70;;;;;;5054639;28;20049;-12
2023/02/01 05:36:19;;;;;;;0.60;0.40;;;15.00;65.00;;;;;;5055782;28;20059;-12
2023/02/01 05:38:44;;;;;;;0.70;0.40;;;15.00;65.20;;;;;;5047478;28;20094;-13
2023/02/01 05:41:10;;;;;;;0.50;0.30;;;15.00;65.30;;;;;;5056853;28;20041;-12
2023/02/01 05:43:35;;;;;;;0.43;0.40;;;15.00;65.20;;;;;;5060809;28;20526;-12
2023/02/01 05:46:01;;;;;;;0.43;0.30;;;15.00;65.20;;;;;;5056784;28;20032;-30
2023/02/01 05:48:27;;;;;;;0.70;0.50;;;15.10;65.00;;;;;;5048891;28;20123;-14
2023/02/01 05:50:52;;;;;;;0.73;0.73;;;15.00;65.00;;;;;;5043465;28;20044;-13
2023/02/01 05:53:18;;;;;;;0.30;0.30;;;15.00;65.10;;;;;;5048760;28;20029;-12
2023/02/01 05:55:43;;;;;;;0.75;0.50;;;15.00;65.20;;;;;;5045240;28;20060;-14
2023/02/01 05:58:09;;;;;;;0.45;0.38;;;15.00;65.10;;;;;;5046926;28;20530;-19
2023/02/01 06:00:34;;;;;;;0.50;0.50;;;15.00;65.20;;;;;;5046614;28;20040;-12
2023/02/01 06:03:01;;;;;;;0.40;0.40;;;15.20;64.80;;;;;;5065152;28;20032;-12
2023/02/01 06:05:26;;;;;;;0.65;0.40;;;15.10;64.70;;;;;;5055108;28;20037;-12
2023/02/01 06:07:52;;;;;;;0.60;0.40;;;15.00;65.30;;;;;;5050378;28;20492;-21
2023/02/01 06:10:18;;;;;;;1.23;0.82;;;15.00;65.20;;;;;;5044063;28;20096;-24
2023/02/01 06:12:44;;;;;;;0.80;0.38;;;15.00;65.20;;;;;;5048921;28;20124;-12
2023/02/01 06:15:11;;;;;;;0.75;0.40;;;15.00;65.20;;;;;;5064111;28;20131;-13
2023/02/01 06:17:37;;;;;;;0.50;0.32;;;15.20;65.00;;;;;;5045108;28;20084;-12
2023/02/01 06:20:03;;;;;;;0.57;0.40;;;15.40;64.00;;;;;;5047542;28;20049;-12
2023/02/01 06:22:28;;;;;;;0.57;0.32;;;15.10;64.50;;;;;;5048568;28;20535;-14
2023/02/01 06:24:54;;;;;;;0.88;0.40;;;15.10;64.90;;;;;;5054928;28;20146;-16
2023/02/01 06:27:19;;;;;;;0.70;0.50;;;15.00;65.80;;;;;;5067817;28;20043;-12
2023/02/01 06:29:45;;;;;;;0.50;0.40;;;15.00;65.00;;;;;;5058739;28;20132;-20
2023/02/01 06:32:11;;;;;;;0.63;0.40;;;15.00;65.00;;;;;;5057464;28;20052;-12
2023/02/01 06:34:39;;;;;;;0.55;0.40;;;15.10;65.00;;;;;;5047615;28;20389;-13
2023/02/01 06:37:04;;;;;;;0.93;0.40;;;15.10;65.00;;;;;;5043329;28;21795;-14
2023/02/01 06:39:30;;;;;;;0.43;0.32;;;15.00;64.80;;;;;;5046755;28;20045;-14
2023/02/01 06:41:56;;;;;;;0.90;0.63;;;15.00;65.00;;;;;;5054294;28;20060;-12
2023/02/01 06:44:21;;;;;;;1.45;0.40;;;14.90;65.20;;;;;;5064846;28;20458;-12
2023/02/01 06:46:47;;;;;;;0.57;0.47;;;15.00;65.20;;;;;;5053903;28;20048;-12
2023/02/01 06:49:12;;;;;;;0.98;0.40;;;15.00;65.30;;;;;;5044192;28;20065;-12
2023/02/01 06:51:38;;;;;;;0.22;0.20;;;15.00;65.10;;;;;;5046854;28;20037;-14
2023/02/01 06:54:03;;;;;;;0.68;0.40;;;14.90;65.30;;;;;;5047313;28;20115;-12
2023/02/01 06:56:31;;;;;;;0.93;0.22;;;14.90;65.30;;;;;;5053161;28;20455;-19
2023/02/01 06:58:56;;;;;;;0.57;0.50;;;15.00;65.20;;;;;;5062364;28;20064;-12
2023/02/01 07:01:22;;;;;;;0.55;0.30;;;15.00;65.20;;;;;;5050563;28;20137;-13
2023/02/01 07:03:53;;;;;;;0.32;0.22;;;14.90;65.30;;;;;;5042285;28;20041;-13
2023/02/01 07:06:19;;;;;;;1.15;0.50;;;15.00;65.20;;;;;;5043919;28;20416;-12
2023/02/01 07:08:45;;;;;;;0.40;0.30;;;14.90;65.30;;;;;;5060708;28;20060;-13
2023/02/01 07:11:11;;;;;;;0.57;0.50;;;14.90;65.60;;;;;;5057103;28;20579;-23
2023/02/01 07:13:37;;;;;;;0.43;0.30;;;14.90;65.30;;;;;;5044390;28;20404;-12
2023/02/01 07:16:05;;;;;;;0.47;0.38;;;15.00;65.40;;;;;;5046287;28;20102;-17
2023/02/01 07:18:31;;;;;;;2.20;0.40;;;14.90;65.30;;;;;;5048006;28;20547;-12
2023/02/01 07:20:56;;;;;;;0.57;0.30;;;15.00;65.30;;;;;;5047035;28;20084;-13
2023/02/01 07:23:22;;;;;;;0.52;0.40;;;15.00;65.30;;;;;;5067890;28;20060;-12
2023/02/01 07:25:48;;;;;;;0.40;0.35;;;15.00;65.10;;;;;;5050140;28;20166;-12
2023/02/01 07:28:13;;;;;;;1.02;0.50;;;15.00;65.80;;;;;;5046786;28;20076;-13
2023/02/01 07:30:39;;;;;;;0.68;0.30;;;15.00;65.20;;;;;;5053339;28;20162;-12
2023/02/01 07:33:06;;;;;;;0.40;0.40;;;14.90;65.10;;;;;;5054105;28;20040;-12
2023/02/01 07:35:31;;;;;;;0.45;0.30;;;14.90;65.30;;;;;;5060321;28;20095;-12
2023/02/01 07:37:57;;;;;;;0.80;0.40;;;15.00;65.20;;;;;;5055232;28;20427;-12
2023/02/01 07:40:28;;;;;;;2.05;0.45;;;15.00;65.00;;;;;;5053268;28;20044;-13
2023/02/01 07:42:55;;;;;;;1.13;0.50;;;14.90;65.30;;;;;;5052276;28;20033;-12
2023/02/01 07:45:21;;;;;;;0.82;0.50;;;14.90;65.50;;;;;;5044595;28;22563;-17
2023/02/01 07:47:46;;;;;;;0.65;0.40;;;15.00;65.20;;;;;;5040579;28;20040;-12
2023/02/01 07:50:12;;;;;;;0.70;0.40;;;14.90;65.30;;;;;;5039004;28;20037;-14
2023/02/01 07:52:38;;;;;;;0.50;0.30;;;14.90;65.40;;;;;;5046427;28;20037;-14
2023/02/01 07:55:04;;;;;;;0.95;0.50;;;14.90;65.30;;;;;;5040637;28;20145;-13
2023/02/01 07:57:29;;;;;;;0.80;0.47;;;15.10;65.00;;;;;;5065440;28;20219;-14
2023/02/01 08:02:39;;;;;;;0.52;0.35;;;14.90;65.20;;;;;;5057348;28;20087;-12
2023/02/01 08:05:05;;;;;;;0.50;0.40;;;15.00;65.10;;;;;;5045379;28;20045;-13
2023/02/01 08:07:31;;;;;;;0.60;0.50;;;14.90;65.10;;;;;;5044367;28;20068;-15
2023/02/01 08:09:56;;;;;;;0.30;0.30;;;14.90;65.30;;;;;;5041959;28;20049;-12
2023/02/01 08:12:22;;;;;;;0.50;0.32;;;14.90;65.50;;;;;;5041974;28;20072;-12
2023/02/01 08:14:47;;;;;;;0.88;0.40;;;14.90;65.40;;;;;;5041245;28;20060;-12
2023/02/01 08:17:13;;;;;;;0.52;0.43;;;15.00;65.40;;;;;;5042460;28;20041;-14
2023/02/01 08:19:38;;;;;;;0.40;0.30;;;14.90;65.30;;;;;;5059023;28;20127;-12
2023/02/01 08:22:06;;;;;;;0.73;0.30;;;15.00;65.20;;;;;;5047441;28;20099;-16
2023/02/01 08:24:33;;;;;;;0.50;0.40;;;15.00;65.10;;;;;;5042503;28;20045;-12
2023/02/01 08:27:00;;;;;;;0.70;0.50;;;15.00;64.90;;;;;;5052841;28;20118;-15
2023/02/01 08:29:25;;;;;;;0.43;0.40;;;15.00;65.10;;;;;;5044476;28;20076;-12
2023/02/01 08:31:51;;;;;;;0.93;0.50;;;15.00;65.00;;;;;;5049697;28;20049;-12
2023/02/01 08:34:17;;;;;;;0.50;0.40;;;15.00;65.20;;;;;;5054134;28;20041;-13
2023/02/01 08:36:43;;;;;;;0.70;0.43;;;15.00;65.20;;;;;;5052565;28;20055;-13
2023/02/01 08:39:10;;;;;;;0.75;0.40;;;14.90;65.40;;;;;;5052623;28;20068;-13
2023/02/01 08:41:35;;;;;;;0.60;0.30;;;15.00;65.20;;;;;;5064157;28;20511;-12
2023/02/01 08:44:01;;;;;;;0.43;0.32;;;14.90;65.40;;;;;;5047325;28;20037;-12
2023/02/01 08:46:27;;;;;;;0.70;0.50;;;15.10;65.00;;;;;;5044132;28;20037;-12
2023/02/01 08:48:52;;;;;;;2.08;0.65;;;15.10;64.90;;;;;;5051132;28;20060;-11
2023/02/01 08:51:20;;;;;;;1.10;0.60;;;15.00;65.00;;;;;;5048559;28;20055;-13
2023/02/01 08:53:46;;;;;;;0.95;0.40;;;15.00;65.30;;;;;;5048604;28;20193;-12
2023/02/01 08:56:12;;;;;;;0.55;0.43;;;15.00;65.10;;;;;;5045426;28;20556;-21
2023/02/01 08:58:38;;;;;;;1.42;0.50;;;15.00;65.10;;;;;;5047748;28;20359;-12
2023/02/01 09:01:05;;;;;;;0.60;0.60;;;15.20;64.50;;;;;;5046449;28;20041;-13
2023/02/01 09:03:30;;;;;;;0.73;0.40;;;15.20;64.40;;;;;;5045386;28;20187;-15
2023/02/01 09:06:04;;;;;;;0.57;0.40;;;15.30;64.10;;;;;;5048310;28;20116;-12
2023/02/01 09:08:29;;;;;;;0.60;0.55;;;15.20;64.40;;;;;;5052602;28;20048;-12
2023/02/01 09:10:59;;;;;;;0.50;0.40;;;15.00;64.70;;;;;;5066531;28;20515;-12
2023/02/01 09:13:25;;;;;;;0.73;0.40;;;15.00;64.90;;;;;;5054050;28;20473;-11
2023/02/01 09:15:51;;;;;;;0.60;0.60;;;14.90;64.90;;;;;;5049348;28;20045;-15
2023/02/01 09:18:17;;;;;;;0.65;0.52;;;14.90;65.10;;;;;;5048965;28;20052;-11
2023/02/01 09:20:42;;;;;;;0.82;0.60;;;14.90;65.10;;;;;;5050135;28;20105;-15
2023/02/01 09:23:08;;;;;;;0.68;0.55;;;14.90;65.20;;;;;;5059189;28;20684;-12
2023/02/01 09:25:33;;;;;;;0.80;0.50;;;14.80;65.20;;;;;;5059563;28;20170;-11
2023/02/01 09:27:59;;;;;;;0.82;0.50;;;14.80;65.40;;;;;;5065313;28;20047;-11
2023/02/01 09:30:25;;;;;;;0.63;0.50;;;14.80;65.20;;;;;;5065576;28;20044;-13
2023/02/01 09:32:50;;;;;;;0.40;0.40;;;14.90;65.40;;;;;;5069528;28;20083;-12
2023/02/01 09:35:16;;;;;;;0.52;0.32;;;14.80;65.20;;;;;;5049973;28;20033;-11
2023/02/01 09:37:42;;;;;;;0.60;0.40;;;14.80;65.10;;;;;;5056950;28;20511;-12
2023/02/01 09:40:13;;;;;;;0.60;0.40;;;14.80;65.20;;;;;;5063467;28;20591;-14
2023/02/01 09:43:03;;;;;;;0.63;0.50;;;14.80;65.10;;;;;;5057240;28;20171;-11
2023/02/01 09:45:44;;;;;;;0.60;0.50;;;14.80;65.00;;;;;;5047918;28;20051;-11
2023/02/01 09:48:21;;;;;;;1.15;0.47;;;14.80;65.10;;;;;;5067090;28;20118;-12
2023/02/01 09:50:53;;;;;;;0.88;0.50;;;14.80;65.10;;;;;;5067103;28;20044;-12
2023/02/01 09:53:30;;;;;;;0.95;0.60;;;14.80;65.10;;;;;;5045325;28;20080;-12
2023/02/01 09:56:07;;;;;;;1.63;0.60;;;14.80;65.20;;;;;;5046742;28;20072;-11
2023/02/01 09:58:37;;;;;;;0.75;0.65;;;14.80;65.10;;;;;;5046876;28;20049;-19
2023/02/01 10:01:04;;;;;;;0.82;0.63;;;14.80;65.00;;;;;;5046997;28;20048;-12
2023/02/01 10:03:31;;;;;;;0.60;0.40;;;14.80;65.00;;;;;;5043618;28;20389;-12
2023/02/01 10:06:03;;;;;;;0.85;0.50;;;14.80;65.10;;;;;;5062777;28;20044;-13
2023/02/01 10:08:56;;;;;;;0.50;0.50;;;14.80;65.20;;;;;;5058529;28;20097;-12
2023/02/01 10:11:50;;;;;;;0.60;0.43;;;14.70;65.20;;;;;;5046543;28;20036;-12
2023/02/01 10:14:34;;;;;;;0.50;0.40;;;14.70;65.10;;;;;;5057372;28;20044;-11
2023/02/01 10:17:13;;;;;;;1.23;0.63;;;14.80;65.20;;;;;;5051313;28;20047;-16
2023/02/01 10:20:13;;;;;;;0.75;0.60;;;14.70;65.10;;;;;;5054738;28;20519;-11
2023/02/01 10:23:03;;;;;;;0.73;0.50;;;14.70;65.10;;;;;;5079707;28;20048;-13
2023/02/01 10:25:35;;;;;;;0.32;0.32;;;14.70;65.20;;;;;;5044869;28;20052;-19
2023/02/01 10:28:01;;;;;;;0.63;0.40;;;14.70;65.10;;;;;;5050840;28;20047;-13
2023/02/01 10:30:30;;;;;;;0.52;0.50;;;14.70;65.00;;;;;;5060846;28;20032;-12
2023/02/01 10:32:57;;;;;;;0.73;0.50;;;14.70;65.10;;;;;;5066258;28;20051;-12
2023/02/01 10:35:28;;;;;;;1.77;0.52;;;14.70;65.10;;;;;;5050707;28;20401;-11
2023/02/01 10:37:54;;;;;;;0.30;0.30;;;14.80;65.00;;;;;;5036797;28;20060;-14
2023/02/01 10:40:24;;;;;;;0.85;0.50;;;14.80;64.90;;;;;;5053696;28;20048;-13
2023/02/01 10:42:51;;;;;;;0.90;0.63;;;14.80;64.80;;;;;;5050728;28;20539;-17
2023/02/01 10:45:19;;;;;;;0.70;0.68;;;14.80;64.80;;;;;;5052962;28;20155;-12
2023/02/01 10:47:44;;;;;;;1.05;0.43;;;14.70;64.90;;;;;;5051355;28;20131;-11
2023/02/01 10:50:15;;;;;;;0.70;0.50;;;14.80;65.00;;;;;;5045855;28;20183;-12
2023/02/01 10:52:57;;;;;;;0.50;0.40;;;14.70;64.90;;;;;;5064164;28;20033;-11
2023/02/01 10:55:39;;;;;;;0.75;0.57;;;14.70;64.80;;;;;;5061173;28;20040;-12
2023/02/01 10:58:08;;;;;;;0.70;0.50;;;14.80;64.90;;;;;;5057865;28;20052;-12
2023/02/01 11:00:44;;;;;;;0.77;0.50;;;14.80;64.80;;;;;;5045275;28;20045;-21
2023/02/01 11:03:42;;;;;;;0.70;0.50;;;14.80;64.80;;;;;;5042827;28;20045;-12
2023/02/01 11:06:23;;;;;;;0.60;0.60;;;14.80;64.90;;;;;;5044929;28;20041;-12
2023/02/01 11:09:14;;;;;;;0.93;0.65;;;14.80;64.70;;;;;;5053005;28;20142;-11
2023/02/01 11:11:49;;;;;;;0.75;0.60;;;14.80;64.90;;;;;;5030613;28;20048;-19
2023/02/01 11:14:18;;;;;;;0.40;0.40;;;14.70;64.40;;;;;;5041830;28;20043;-17
2023/02/01 11:16:49;;;;;;;0.60;0.50;;;14.80;64.40;;;;;;5050320;28;20064;-14
2023/02/01 11:19:15;;;;;;;0.40;0.30;;;14.80;64.30;;;;;;5058580;28;20033;-13
2023/02/01 11:21:43;;;;;;;1.60;0.63;;;14.80;64.30;;;;;;5048422;28;20044;-22
2023/02/01 11:24:40;;;;;;;0.65;0.40;;;14.80;64.30;;;;;;5061362;28;20059;-16
2023/02/01 11:27:19;;;;;;;1.55;0.35;;;14.80;64.30;;;;;;5071322;28;20040;-12
2023/02/01 11:29:47;;;;;;;0.50;0.45;;;14.90;64.20;;;;;;5057410;28;20045;-15
2023/02/01 11:32:13;;;;;;;0.90;0.52;;;15.00;64.10;;;;;;5058818;28;20041;-13
2023/02/01 11:35:04;;;;;;;0.55;0.55;;;15.20;63.80;;;;;;5044502;28;20029;-12
2023/02/01 11:37:40;;;;;;;1.83;0.50;;;15.30;63.50;;;;;;5063870;28;20519;-13
2023/02/01 11:40:15;;;;;;;0.50;0.40;;;15.30;63.30;;;;;;5043660;28;20052;-21
2023/02/01 11:43:12;;;;;;;0.63;0.40;;;15.20;63.70;;;;;;5060510;28;20048;-27
2023/02/01 11:45:38;;;;;;;0.60;0.60;;;15.20;64.00;;;;;;5053992;28;20052;-14
2023/02/01 11:48:09;;;;;;;0.73;0.52;;;15.00;64.20;;;;;;5063834;28;20048;-11
2023/02/01 11:50:39;;;;;;;0.75;0.70;;;15.00;64.30;;;;;;5054929;28;20060;-12
2023/02/01 11:53:40;;;;;;;0.70;0.60;;;14.90;64.60;;;;;;5051862;28;20123;-13
2023/02/01 11:56:24;;;;;;;0.82;0.73;;;14.80;64.70;;;;;;5029567;28;20134;-12
2023/02/01 11:59:10;;;;;;;2.85;0.40;;;14.90;64.60;;;;;;5012751;28;20146;-12
2023/02/01 12:01:45;;;;;;;0.88;0.55;;;14.90;64.80;;;;;;5022798;28;20122;-12
2023/02/01 12:04:29;;;;;;;;;;;14.90;64.90;;;;;;5036604;28;20569;-13
2023/02/01 12:07:16;;;;;;;0.87;0.50;;;15.00;64.50;;;;;;5042718;28;19924;-12
2023/02/01 12:10:04;;;;;;;1.10;0.80;;;15.00;64.60;;;;;;5025639;28;20067;-15
2023/02/01 12:12:39;;;;;;;0.70;0.55;;;14.90;64.70;;;;;;5036947;28;20052;-13
2023/02/01 12:15:36;;;;;;;1.88;0.60;;;15.00;64.60;;;;;;5022599;28;20044;-16
2023/02/01 12:18:31;;;;;;;1.30;0.50;;;14.90;64.90;;;;;;5038842;28;20037;-22
2023/02/01 12:21:04;;;;;;;0.60;0.57;;;15.00;65.00;;;;;;5038819;28;20045;-12
2023/02/01 12:23:57;;;;;;;0.80;0.50;;;15.20;64.50;;;;;;5042298;28;20103;-12
2023/02/01 12:26:33;;;;;;;0.95;0.52;;;15.20;64.40;;;;;;5024292;28;20036;-12
2023/02/01 12:29:13;;;;;;;0.88;0.50;;;15.10;64.80;;;;;;5043581;28;20056;-19
2023/02/01 12:31:48;;;;;;;1.75;0.73;;;15.10;64.90;;;;;;5061991;28;20491;-26
2023/02/01 12:34:35;;;;;;;0.50;0.47;;;15.00;64.90;;;;;;5048200;28;20040;-13
2023/02/01 12:37:05;;;;;;;3.05;0.70;;;15.00;64.90;;;;;;5050019;28;20037;-12
2023/02/01 12:39:31;;;;;;;1.08;0.60;;;15.10;65.60;;;;;;5064611;28;20041;-12
2023/02/01 12:42:03;;;;;;;1.42;0.60;;;15.20;64.70;;;;;;5052793;28;20515;-15
2023/02/01 12:44:35;;;;;;;0.70;0.50;;;15.10;64.70;;;;;;5050423;28;20040;-16
2023/02/01 12:47:07;;;;;;;1.00;0.60;;;15.10;65.00;;;;;;5045251;28;20074;-19
2023/02/01 12:49:59;;;;;;;1.63;0.50;;;15.10;65.00;;;;;;5051136;28;20575;-13
2023/02/01 12:52:51;;;;;;;1.00;0.60;;;15.10;65.00;;;;;;5046826;28;20033;-13
2023/02/01 12:55:17;;;;;;;1.05;0.57;;;15.10;65.00;;;;;;5051999;28;20037;-12
2023/02/01 12:57:46;;;;;;;0.75;0.55;;;15.00;65.10;;;;;;5050260;28;20115;-12
2023/02/01 13:00:23;;;;;;;0.88;0.50;;;14.90;65.30;;;;;;5049416;28;20044;-12
2023/02/01 13:02:54;;;;;;;0.98;0.60;;;15.00;65.20;;;;;;5041532;28;20053;-12
2023/02/01 13:05:33;;;;;;;1.58;0.90;;;14.90;65.20;;;;;;5055659;28;20045;-13
2023/02/01 13:08:05;;;;;;;1.23;0.68;;;15.00;65.30;;;;;;5057993;28;20064;-13
2023/02/01 13:10:57;;;;;;;0.38;0.32;;;15.00;65.20;;;;;;5058107;28;20448;-15
2023/02/01 13:13:31;;;;;;;0.82;0.50;;;14.90;65.30;;;;;;5049636;28;20048;-12
2023/02/01 13:16:06;;;;;;;0.52;0.50;;;14.90;65.20;;;;;;5045069;28;20033;-12
2023/02/01 13:18:35;;;;;;;1.00;0.60;;;15.00;65.30;;;;;;5054020;28;20045;-12
2023/02/01 13:21:25;;;;;;;0.60;0.40;;;14.90;65.30;;;;;;5061458;28;20452;-12
2023/02/01 13:23:51;;;;;;;0.50;0.40;;;14.90;65.40;;;;;;5055620;28;20041;-12
2023/02/01 13:26:16;;;;;;;1.08;0.65;;;14.90;65.50;;;;;;5070995;28;20037;-13
2023/02/01 13:29:03;;;;;;;0.88;0.50;;;14.90;65.30;;;;;;5049218;28;20107;-18